Time;durP1;ratioP1;P1;durP2;ratioP2;P2;SDS_P1;SDS_P2;PMS_P1;PMS_P2;Temp;Humidity;BMP_temperature;BMP_pressure;BME280_temperature;BME280_humidity;BME280_pressure;Samples;Min_cycle;Max_cycle;Signal;HPM_P1;HPM_P2
2022/08/03 02:48:21;;;;;;;3.92;0.90;;;19.20;99.90;;;;;;4968376;23;86903;-70
2022/08/03 02:50:50;;;;;;;4.28;1.65;;;19.20;99.90;;;;;;4879021;28;86568;-70
2022/08/03 02:53:18;;;;;;;3.92;1.20;;;19.10;99.90;;;;;;4877488;28;89665;-71
2022/08/03 02:55:46;;;;;;;2.67;1.05;;;19.00;99.90;;;;;;4878901;28;87967;-70
2022/08/03 02:58:13;;;;;;;3.60;1.40;;;19.00;99.90;;;;;;4879822;28;88229;-71
2022/08/03 03:00:40;;;;;;;2.97;1.40;;;18.90;99.90;;;;;;4880345;28;86625;-71
2022/08/03 03:03:06;;;;;;;3.00;1.10;;;18.70;99.90;;;;;;4878676;28;88518;-71
2022/08/03 03:05:35;;;;;;;3.88;1.20;;;18.70;99.90;;;;;;4876847;28;88629;-72
2022/08/03 03:08:01;;;;;;;2.65;1.17;;;18.70;99.90;;;;;;4877284;28;87158;-71
2022/08/03 03:10:27;;;;;;;3.00;1.42;;;18.70;99.90;;;;;;4879142;28;86863;-71
2022/08/03 03:12:56;;;;;;;2.78;1.38;;;18.60;99.90;;;;;;4878735;28;87297;-70
2022/08/03 03:15:24;;;;;;;2.60;1.15;;;18.50;99.90;;;;;;4879051;28;86797;-71
2022/08/03 03:17:52;;;;;;;3.67;1.40;;;18.50;99.90;;;;;;4877533;28;87072;-70
2022/08/03 03:20:19;;;;;;;3.22;1.27;;;18.40;99.90;;;;;;4878815;28;87442;-70
2022/08/03 03:22:48;;;;;;;2.95;1.10;;;18.30;99.90;;;;;;4877335;28;88168;-71
2022/08/03 03:25:14;;;;;;;1.98;0.95;;;18.30;99.90;;;;;;4878226;28;87966;-71
2022/08/03 03:27:40;;;;;;;3.47;0.80;;;18.40;99.90;;;;;;4878357;28;86898;-70
2022/08/03 03:30:07;;;;;;;1.85;0.52;;;18.50;99.90;;;;;;4878219;28;86988;-70
2022/08/03 03:32:33;;;;;;;2.67;0.98;;;18.50;99.90;;;;;;4877596;28;86973;-71
2022/08/03 03:34:59;;;;;;;2.90;0.77;;;18.60;99.90;;;;;;4878333;28;87090;-71
2022/08/03 03:37:28;;;;;;;2.63;0.90;;;18.50;99.90;;;;;;4878932;28;87028;-72
2022/08/03 03:39:54;;;;;;;2.67;0.82;;;18.70;99.90;;;;;;4880230;28;86210;-71
2022/08/03 03:42:20;;;;;;;2.70;0.70;;;18.70;99.90;;;;;;4879814;28;87276;-70
2022/08/03 03:44:46;;;;;;;4.25;0.90;;;18.60;99.90;;;;;;4881626;28;86977;-71
2022/08/03 03:47:12;;;;;;;2.38;0.70;;;18.50;99.90;;;;;;4880996;28;87870;-70
2022/08/03 03:49:39;;;;;;;2.80;1.05;;;18.60;99.90;;;;;;4881950;28;86617;-71
2022/08/03 03:52:05;;;;;;;2.35;0.80;;;18.70;99.90;;;;;;4880467;28;88411;-71
2022/08/03 03:54:44;;;;;;;1.80;0.60;;;18.70;99.90;;;;;;4882078;28;87373;-70
2022/08/03 03:57:10;;;;;;;2.25;0.90;;;18.60;99.90;;;;;;4878909;28;87631;-70
2022/08/03 03:59:40;;;;;;;3.70;1.13;;;18.60;99.90;;;;;;4881182;28;87100;-71
2022/08/03 04:02:06;;;;;;;;;;;18.50;99.90;;;;;;4880128;28;87312;-72
2022/08/03 04:12:51;;;;;;;4.10;1.45;;;18.50;99.90;;;;;;4878112;28;88374;-70
2022/08/03 04:15:22;;;;;;;6.85;1.52;;;18.50;99.90;;;;;;4878396;28;87860;-70
2022/08/03 04:17:52;;;;;;;3.40;1.42;;;18.50;99.90;;;;;;4881397;28;86995;-70
2022/08/03 04:20:20;;;;;;;4.22;1.40;;;18.50;99.90;;;;;;4896360;28;87059;-72
2022/08/03 04:22:50;;;;;;;5.38;1.20;;;18.50;99.90;;;;;;4900203;28;87922;-70
2022/08/03 04:25:18;;;;;;;3.92;1.30;;;18.60;99.90;;;;;;4880196;28;87024;-71
2022/08/03 04:27:46;;;;;;;4.90;1.17;;;18.70;99.90;;;;;;4878363;28;87244;-70
2022/08/03 04:30:14;;;;;;;3.90;1.02;;;19.00;99.90;;;;;;4880593;28;86354;-69
2022/08/03 04:32:42;;;;;;;4.30;1.38;;;19.40;99.90;;;;;;4881220;28;87763;-70
2022/08/03 04:35:08;;;;;;;3.17;1.20;;;20.00;99.90;;;;;;4880465;28;87177;-71
2022/08/03 04:37:42;;;;;;;3.08;1.23;;;20.40;99.90;;;;;;4897534;28;87435;-71
2022/08/03 04:40:14;;;;;;;2.67;1.30;;;21.00;96.50;;;;;;4879587;28;86955;-71
2022/08/03 04:42:41;;;;;;;5.13;1.35;;;21.50;93.20;;;;;;4880943;28;87079;-72
2022/08/03 04:45:12;;;;;;;4.07;1.20;;;22.00;92.40;;;;;;4880515;28;87254;-70
2022/08/03 04:47:38;;;;;;;3.78;1.60;;;22.50;90.80;;;;;;4880055;28;87280;-70
2022/08/03 04:50:05;;;;;;;2.30;0.90;;;23.10;90.00;;;;;;4879392;28;87031;-71
2022/08/03 04:52:31;;;;;;;2.90;1.08;;;23.80;84.20;;;;;;4880278;28;88302;-72
2022/08/03 04:54:57;;;;;;;4.47;1.70;;;23.60;80.10;;;;;;4879963;28;86933;-70
2022/08/03 04:57:23;;;;;;;2.22;0.98;;;23.40;81.60;;;;;;4881314;28;86868;-70
2022/08/03 04:59:56;;;;;;;2.40;1.27;;;23.90;79.60;;;;;;4879545;28;87588;-71
2022/08/03 05:02:22;;;;;;;5.75;1.20;;;24.30;78.80;;;;;;4879345;28;88289;-73
2022/08/03 05:04:49;;;;;;;4.82;1.30;;;23.80;78.40;;;;;;4881928;28;88907;-71
2022/08/03 05:07:16;;;;;;;3.80;1.25;;;23.60;78.20;;;;;;4883097;28;86856;-70
2022/08/03 05:09:42;;;;;;;3.47;0.93;;;23.60;78.70;;;;;;4882978;28;87275;-71
2022/08/03 05:12:08;;;;;;;1.60;0.80;;;24.30;78.60;;;;;;4882849;28;87041;-71
2022/08/03 05:14:36;;;;;;;3.42;1.15;;;25.30;75.80;;;;;;4881757;28;86980;-70
2022/08/03 05:17:02;;;;;;;1.98;1.05;;;26.30;72.00;;;;;;4874644;28;87249;-70
2022/08/03 05:19:28;;;;;;;3.38;0.98;;;27.30;69.80;;;;;;4864391;29;86164;-71
2022/08/03 05:21:54;;;;;;;5.18;1.20;;;28.30;66.90;;;;;;4863761;29;87340;-74
2022/08/03 05:24:19;;;;;;;3.35;1.23;;;29.10;63.80;;;;;;4877541;28;87996;-72
2022/08/03 05:26:45;;;;;;;3.85;1.50;;;29.20;62.80;;;;;;4882612;28;88192;-71
2022/08/03 05:29:11;;;;;;;3.67;1.65;;;29.70;61.20;;;;;;4881990;28;86983;-75
2022/08/03 05:31:36;;;;;;;4.45;1.52;;;30.10;59.10;;;;;;4882378;28;87558;-73
2022/08/03 05:34:02;;;;;;;2.90;1.33;;;29.60;58.80;;;;;;4882563;28;87008;-72
2022/08/03 05:36:28;;;;;;;5.82;2.00;;;29.80;58.50;;;;;;4882324;28;86846;-73
2022/08/03 05:38:53;;;;;;;3.85;1.42;;;30.10;57.40;;;;;;4881594;28;87458;-73
2022/08/03 05:41:19;;;;;;;3.90;1.98;;;30.60;56.90;;;;;;4881441;28;88176;-72
2022/08/03 05:43:45;;;;;;;3.63;1.30;;;30.00;57.50;;;;;;4882367;28;86231;-75
2022/08/03 05:46:11;;;;;;;2.53;1.70;;;30.00;57.00;;;;;;4880639;28;87016;-72
2022/08/03 05:48:37;;;;;;;5.25;1.58;;;30.30;55.20;;;;;;4882795;28;87466;-74
2022/08/03 05:51:05;;;;;;;5.43;1.92;;;30.30;56.20;;;;;;4881436;28;88953;-73
2022/08/03 05:53:34;;;;;;;2.58;1.42;;;30.10;56.90;;;;;;4882125;28;87691;-72
2022/08/03 05:56:00;;;;;;;7.80;1.70;;;30.60;54.80;;;;;;4882050;28;87076;-72
2022/08/03 05:58:26;;;;;;;3.80;1.65;;;30.60;57.00;;;;;;4882326;28;87432;-73
2022/08/03 06:00:52;;;;;;;2.13;1.15;;;31.20;55.20;;;;;;4881496;28;87407;-71
2022/08/03 06:03:18;;;;;;;4.30;1.48;;;31.20;53.90;;;;;;4882710;28;87764;-74
2022/08/03 06:05:44;;;;;;;5.65;1.25;;;31.60;54.30;;;;;;4882803;28;86907;-72
2022/08/03 06:08:10;;;;;;;7.05;1.65;;;32.60;52.80;;;;;;4879832;28;86336;-73
2022/08/03 06:10:36;;;;;;;5.80;1.70;;;32.10;52.40;;;;;;4881355;28;88185;-72
2022/08/03 06:13:02;;;;;;;7.32;2.03;;;31.40;53.10;;;;;;4880050;28;87500;-72
2022/08/03 06:15:29;;;;;;;2.55;1.40;;;32.10;51.30;;;;;;4880564;28;88007;-73
2022/08/03 06:17:56;;;;;;;2.67;1.77;;;32.80;51.10;;;;;;4880265;28;86818;-73
2022/08/03 06:20:22;;;;;;;2.45;1.65;;;33.50;49.00;;;;;;4882203;28;87519;-73
2022/08/03 06:22:48;;;;;;;2.58;1.33;;;34.60;48.50;;;;;;4879745;28;87844;-72
2022/08/03 06:25:15;;;;;;;4.10;1.70;;;35.60;46.60;;;;;;4881754;28;86678;-74
2022/08/03 06:27:41;;;;;;;3.53;1.65;;;35.70;46.10;;;;;;4881578;28;87041;-74
2022/08/03 06:30:09;;;;;;;3.75;2.03;;;36.20;44.00;;;;;;4882130;28;87617;-72
2022/08/03 06:32:36;;;;;;;4.97;1.85;;;34.50;46.70;;;;;;4880727;28;87122;-78
2022/08/03 06:35:03;;;;;;;3.80;1.52;;;35.00;47.90;;;;;;4880448;28;86892;-75
2022/08/03 06:37:28;;;;;;;3.15;1.88;;;36.90;46.80;;;;;;4873011;28;86940;-71
2022/08/03 06:39:54;;;;;;;4.00;1.83;;;38.80;44.60;;;;;;4863948;28;88218;-74
2022/08/03 06:42:20;;;;;;;2.90;1.98;;;40.10;42.50;;;;;;4876395;28;88806;-72
2022/08/03 06:44:45;;;;;;;3.05;1.77;;;40.60;42.20;;;;;;4880989;28;87222;-70
2022/08/03 06:47:11;;;;;;;3.28;2.22;;;41.20;40.30;;;;;;4880123;28;87878;-69
2022/08/03 06:49:37;;;;;;;3.78;2.45;;;41.50;39.80;;;;;;4880899;28;87658;-69
2022/08/03 06:52:03;;;;;;;2.90;2.22;;;41.90;37.90;;;;;;4880376;28;87700;-69
2022/08/03 06:54:29;;;;;;;7.13;2.80;;;42.20;38.20;;;;;;4880930;28;86984;-73
2022/08/03 06:56:54;;;;;;;4.25;2.85;;;42.20;37.80;;;;;;4881481;28;86347;-71
2022/08/03 06:59:20;;;;;;;3.08;2.42;;;42.60;38.20;;;;;;4880318;28;87264;-69
2022/08/03 07:01:46;;;;;;;6.70;1.92;;;43.10;37.00;;;;;;4881198;28;87249;-69
2022/08/03 07:04:11;;;;;;;3.75;3.00;;;43.50;36.40;;;;;;4879875;28;88054;-72
2022/08/03 07:06:38;;;;;;;4.47;2.20;;;43.50;37.30;;;;;;4880598;28;87024;-69
2022/08/03 07:09:04;;;;;;;3.95;2.38;;;44.10;36.30;;;;;;4880306;28;87053;-72
2022/08/03 07:11:29;;;;;;;3.97;3.33;;;44.60;37.20;;;;;;4880452;28;87063;-70
2022/08/03 07:13:55;;;;;;;3.75;2.80;;;44.20;35.70;;;;;;4880023;28;86838;-72
2022/08/03 07:16:21;;;;;;;4.60;4.13;;;44.70;35.60;;;;;;4882857;28;87213;-70
2022/08/03 07:18:47;;;;;;;3.80;3.22;;;45.10;35.90;;;;;;4872394;28;88241;-70
2022/08/03 07:21:14;;;;;;;3.22;2.92;;;45.50;35.90;;;;;;4884854;28;86922;-79
2022/08/03 07:23:40;;;;;;;4.15;3.75;;;45.80;34.60;;;;;;4884730;28;86902;-72
2022/08/03 07:26:06;;;;;;;5.10;3.83;;;46.40;34.70;;;;;;4883469;28;87063;-72
2022/08/03 07:28:32;;;;;;;5.07;3.72;;;47.10;33.40;;;;;;4882879;28;88156;-74
2022/08/03 07:30:58;;;;;;;4.82;3.35;;;47.60;32.90;;;;;;4879824;28;87224;-73
2022/08/03 07:33:24;;;;;;;5.88;4.03;;;47.90;32.10;;;;;;4864289;29;87525;-71
2022/08/03 07:35:50;;;;;;;4.25;3.80;;;47.30;33.60;;;;;;4871402;28;87415;-71
2022/08/03 07:38:15;;;;;;;4.57;3.85;;;46.90;33.40;;;;;;4883488;28;86982;-75
2022/08/03 07:40:41;;;;;;;4.13;3.38;;;47.30;33.00;;;;;;4881861;28;86866;-70
2022/08/03 07:43:07;;;;;;;4.65;4.20;;;47.90;32.80;;;;;;4883444;28;87273;-76
2022/08/03 07:45:33;;;;;;;8.85;4.22;;;48.80;31.70;;;;;;4881512;28;86389;-74
2022/08/03 07:47:59;;;;;;;8.13;4.88;;;48.80;30.70;;;;;;4882041;28;88801;-70
2022/08/03 07:50:25;;;;;;;4.00;3.67;;;48.80;29.90;;;;;;4881767;28;87349;-73
2022/08/03 07:52:52;;;;;;;4.35;3.88;;;48.50;31.90;;;;;;4881166;28;88437;-70
2022/08/03 07:55:20;;;;;;;4.57;4.18;;;48.10;31.30;;;;;;4880489;28;87003;-74
2022/08/03 07:57:45;;;;;;;;;;;48.80;29.90;;;;;;4881837;28;87935;-72
2022/08/03 08:00:16;;;;;;;4.80;4.40;;;48.30;30.00;;;;;;4881893;28;87080;-71
2022/08/03 08:02:43;;;;;;;4.43;4.03;;;48.70;30.00;;;;;;4881594;28;87104;-75
2022/08/03 08:05:12;;;;;;;5.35;4.85;;;46.00;32.70;;;;;;4880380;28;87063;-71
2022/08/03 08:07:38;;;;;;;3.88;3.55;;;47.40;31.30;;;;;;4876666;28;87130;-75
2022/08/03 08:10:08;;;;;;;4.70;4.25;;;48.10;30.50;;;;;;4885853;28;86934;-75
2022/08/03 08:12:35;;;;;;;4.78;4.38;;;48.70;29.70;;;;;;4900420;28;86646;-75
2022/08/03 08:15:02;;;;;;;5.80;3.83;;;49.10;30.10;;;;;;4893680;28;86922;-76
2022/08/03 08:17:28;;;;;;;4.75;4.22;;;49.50;29.90;;;;;;4880896;28;88405;-75
2022/08/03 08:19:53;;;;;;;4.57;4.18;;;50.20;29.70;;;;;;4879672;28;88823;-72
2022/08/03 08:22:19;;;;;;;5.88;5.15;;;49.80;29.40;;;;;;4881197;28;87028;-77
2022/08/03 08:24:47;;;;;;;8.50;6.10;;;50.00;29.80;;;;;;4880888;28;87383;-73
2022/08/03 08:27:13;;;;;;;5.50;5.00;;;51.50;28.80;;;;;;4881193;28;88267;-72
2022/08/03 08:29:38;;;;;;;4.78;4.38;;;51.20;28.10;;;;;;4880992;28;88064;-71
2022/08/03 08:32:04;;;;;;;8.10;4.72;;;49.20;29.30;;;;;;4879222;28;86934;-72
2022/08/03 08:34:30;;;;;;;6.78;5.78;;;50.40;29.10;;;;;;4881842;28;86272;-76
2022/08/03 08:36:56;;;;;;;5.30;4.80;;;51.30;28.50;;;;;;4880835;28;87286;-73
2022/08/03 08:39:21;;;;;;;6.25;5.72;;;51.10;28.60;;;;;;4880760;28;86989;-74
2022/08/03 08:41:51;;;;;;;6.82;6.28;;;51.30;28.80;;;;;;4880757;28;88445;-72
2022/08/03 08:44:16;;;;;;;5.18;4.70;;;49.70;28.70;;;;;;4880871;28;87545;-71
2022/08/03 08:46:42;;;;;;;6.47;5.95;;;48.50;29.30;;;;;;4879846;28;88757;-75
2022/08/03 08:49:09;;;;;;;4.78;4.43;;;49.20;29.10;;;;;;4880422;28;87076;-73
2022/08/03 08:51:37;;;;;;;6.10;5.60;;;50.50;28.60;;;;;;4880918;28;87302;-73
2022/08/03 08:54:06;;;;;;;6.47;5.82;;;50.80;29.40;;;;;;4880120;28;87567;-70
2022/08/03 08:56:32;;;;;;;6.45;5.93;;;51.40;30.00;;;;;;4880857;28;87391;-73
2022/08/03 08:58:59;;;;;;;6.10;5.60;;;52.80;29.90;;;;;;4880657;28;86965;-73
2022/08/03 09:01:26;;;;;;;6.85;6.32;;;53.50;29.70;;;;;;4878849;28;87032;-75
2022/08/03 09:03:53;;;;;;;8.60;7.65;;;52.60;29.80;;;;;;4880663;28;87147;-75
2022/08/03 09:06:20;;;;;;;7.38;6.65;;;51.40;31.10;;;;;;4879218;28;88090;-74
2022/08/03 09:08:46;;;;;;;7.47;6.75;;;51.50;30.80;;;;;;4879872;28;87087;-74
2022/08/03 09:11:11;;;;;;;10.27;9.48;;;51.60;30.00;;;;;;4893610;28;87223;-77
2022/08/03 09:13:37;;;;;;;9.60;8.75;;;52.40;29.70;;;;;;4892174;28;86970;-72
2022/08/03 09:16:13;;;;;;;8.80;7.93;;;52.90;29.70;;;;;;4879345;28;87271;-73
2022/08/03 09:18:43;;;;;;;7.75;6.90;;;52.10;30.30;;;;;;4880356;28;87343;-74
2022/08/03 09:21:25;;;;;;;9.88;9.15;;;51.70;30.60;;;;;;4880668;28;86967;-74
2022/08/03 09:23:55;;;;;;;8.40;7.70;;;51.90;30.60;;;;;;4880369;28;86647;-71
2022/08/03 09:26:29;;;;;;;10.00;9.00;;;51.40;30.70;;;;;;4879915;28;87643;-71
2022/08/03 09:29:01;;;;;;;7.70;6.80;;;51.20;30.10;;;;;;4878693;28;88512;-77
2022/08/03 09:31:34;;;;;;;9.05;8.15;;;52.30;30.60;;;;;;4880090;28;88005;-73
2022/08/03 09:34:08;;;;;;;8.77;7.97;;;53.10;29.80;;;;;;4879399;28;86618;-74
2022/08/03 09:36:44;;;;;;;8.10;7.40;;;53.50;29.20;;;;;;4879897;28;88072;-78
2022/08/03 09:39:11;;;;;;;8.02;7.13;;;54.00;29.70;;;;;;4879460;28;88293;-74
2022/08/03 09:41:43;;;;;;;8.88;8.13;;;53.80;29.60;;;;;;4878956;28;86856;-73
2022/08/03 09:44:09;;;;;;;8.13;7.43;;;53.00;29.50;;;;;;4880119;28;87164;-72
2022/08/03 09:46:51;;;;;;;8.40;7.60;;;52.80;29.40;;;;;;4879048;28;86770;-76
2022/08/03 09:49:17;;;;;;;9.52;8.73;;;52.70;29.90;;;;;;4880324;28;86849;-74
2022/08/03 09:51:43;;;;;;;10.25;9.35;;;52.10;30.00;;;;;;4879507;28;87136;-78
2022/08/03 09:54:09;;;;;;;8.60;7.80;;;50.70;31.20;;;;;;4879302;28;87019;-75
2022/08/03 09:56:53;;;;;;;10.43;7.95;;;50.00;31.10;;;;;;4879308;28;88564;-72
2022/08/03 09:59:30;;;;;;;8.57;7.88;;;50.20;31.10;;;;;;4879368;28;88974;-72
2022/08/03 10:01:58;;;;;;;8.98;8.18;;;51.20;31.20;;;;;;4879721;28;86936;-76
2022/08/03 10:04:25;;;;;;;8.25;7.60;;;51.90;30.70;;;;;;4878966;28;87169;-73
2022/08/03 10:07:02;;;;;;;10.85;9.85;;;52.50;30.00;;;;;;4878719;28;87219;-74
2022/08/03 10:09:28;;;;;;;9.63;7.97;;;51.90;30.70;;;;;;4878018;28;87106;-76
2022/08/03 10:11:54;;;;;;;8.30;7.60;;;52.00;30.50;;;;;;4898051;28;87024;-73
2022/08/03 10:14:21;;;;;;;7.47;6.20;;;49.90;31.00;;;;;;4899818;28;86344;-74
2022/08/03 10:16:48;;;;;;;8.93;7.65;;;48.00;32.60;;;;;;4899333;28;87842;-73
2022/08/03 10:19:14;;;;;;;10.20;5.93;;;46.10;33.70;;;;;;4899173;28;86990;-73
2022/08/03 10:21:50;;;;;;;6.10;5.13;;;43.40;36.40;;;;;;4868911;28;88627;-76
2022/08/03 10:24:19;;;;;;;4.88;4.40;;;41.60;37.40;;;;;;4880960;28;87147;-71
2022/08/03 10:26:46;;;;;;;8.20;5.55;;;39.80;41.20;;;;;;4881037;28;87322;-70
2022/08/03 10:29:20;;;;;;;5.22;4.80;;;37.80;43.20;;;;;;4881535;28;86985;-70
2022/08/03 10:31:47;;;;;;;6.35;3.38;;;36.50;45.80;;;;;;4880603;28;86919;-71
2022/08/03 10:34:24;;;;;;;3.40;2.97;;;36.00;45.20;;;;;;4881405;28;86995;-72
2022/08/03 10:36:55;;;;;;;3.60;2.72;;;34.80;48.80;;;;;;4880854;28;88320;-73
2022/08/03 10:39:25;;;;;;;3.33;2.78;;;33.60;49.50;;;;;;4881647;28;86403;-70
2022/08/03 10:41:53;;;;;;;2.38;1.85;;;33.30;50.80;;;;;;4881842;28;87350;-71
2022/08/03 10:44:21;;;;;;;2.25;2.05;;;33.20;49.40;;;;;;4879998;28;87095;-73
2022/08/03 10:46:49;;;;;;;2.45;1.88;;;32.90;48.70;;;;;;4881066;28;89773;-72
2022/08/03 10:49:19;;;;;;;4.55;1.65;;;32.90;49.90;;;;;;4881012;28;88248;-79
2022/08/03 10:51:46;;;;;;;2.92;1.98;;;33.10;50.50;;;;;;4881478;28;86932;-73
2022/08/03 10:54:34;;;;;;;3.03;2.72;;;33.10;48.70;;;;;;4881323;28;87582;-73
2022/08/03 10:59:44;;;;;;;4.13;1.38;;;33.10;49.20;;;;;;4881157;28;87910;-72
2022/08/03 11:02:11;;;;;;;4.05;1.63;;;32.70;48.90;;;;;;4881481;28;87478;-71
2022/08/03 11:04:36;;;;;;;2.58;1.73;;;32.40;49.00;;;;;;4881735;28;86234;-73
2022/08/03 11:07:22;;;;;;;6.72;1.23;;;32.20;51.50;;;;;;4881538;28;86934;-74
2022/08/03 11:09:53;;;;;;;2.38;1.15;;;32.30;51.10;;;;;;4866302;28;86979;-72
2022/08/03 11:12:24;;;;;;;2.50;1.20;;;32.20;51.40;;;;;;4900255;28;87893;-73
2022/08/03 11:14:50;;;;;;;4.43;1.52;;;31.90;51.70;;;;;;4899690;28;87275;-72
2022/08/03 11:17:17;;;;;;;2.75;1.92;;;32.00;48.60;;;;;;4900406;28;87289;-72
2022/08/03 11:19:49;;;;;;;3.03;1.80;;;32.10;51.20;;;;;;4900232;28;87703;-74
2022/08/03 11:22:15;;;;;;;3.08;1.33;;;32.30;50.00;;;;;;4889907;28;87452;-73
2022/08/03 11:24:42;;;;;;;2.08;1.25;;;31.90;52.90;;;;;;4881402;28;86877;-72
2022/08/03 11:27:14;;;;;;;3.40;0.90;;;31.70;52.10;;;;;;4880413;28;88733;-71
2022/08/03 11:30:01;;;;;;;2.35;1.20;;;31.90;51.50;;;;;;4881682;28;87928;-73
2022/08/03 11:32:51;;;;;;;2.30;1.45;;;32.00;53.00;;;;;;4880529;28;86650;-72
2022/08/03 11:35:34;;;;;;;1.80;0.95;;;32.10;51.40;;;;;;4871266;28;86983;-75
2022/08/03 11:38:03;;;;;;;3.03;1.15;;;32.40;50.00;;;;;;4879973;28;88380;-72
2022/08/03 11:40:33;;;;;;;;;;;32.20;51.00;;;;;;4881191;28;87312;-72
2022/08/03 11:42:59;;;;;;;2.10;1.15;;;32.30;52.00;;;;;;4883087;28;87347;-72
2022/08/03 11:45:24;;;;;;;2.40;1.15;;;32.10;51.80;;;;;;4880539;28;87431;-71
2022/08/03 11:47:53;;;;;;;3.38;1.45;;;32.30;48.80;;;;;;4879868;28;87200;-73
2022/08/03 11:50:20;;;;;;;1.67;1.17;;;32.30;51.00;;;;;;4881275;28;87395;-73
2022/08/03 11:52:46;;;;;;;2.33;1.38;;;32.00;52.60;;;;;;4880619;28;86983;-74
2022/08/03 11:55:14;;;;;;;1.70;1.42;;;31.80;50.60;;;;;;4880986;28;86228;-73
2022/08/03 11:57:40;;;;;;;3.33;0.98;;;31.70;53.90;;;;;;4879099;28;87086;-74
2022/08/03 12:00:29;;;;;;;3.92;1.38;;;31.70;52.10;;;;;;4880847;28;87051;-74
2022/08/03 12:02:58;;;;;;;3.47;0.98;;;31.40;53.80;;;;;;4880572;28;88330;-73
2022/08/03 12:05:57;;;;;;;2.08;1.20;;;31.60;52.90;;;;;;4882423;28;87014;-71
2022/08/03 12:08:26;;;;;;;3.75;1.13;;;32.00;52.90;;;;;;4883161;28;88161;-73
2022/08/03 12:10:53;;;;;;;1.58;1.17;;;31.90;51.40;;;;;;4883077;28;86839;-76
2022/08/03 12:13:22;;;;;;;1.40;0.77;;;32.00;52.70;;;;;;4884615;28;87006;-72
2022/08/03 12:15:57;;;;;;;2.22;1.10;;;32.30;53.10;;;;;;4883532;28;87063;-73
2022/08/03 12:18:24;;;;;;;3.88;1.00;;;32.30;49.80;;;;;;4883829;28;86938;-71
2022/08/03 12:20:52;;;;;;;2.67;0.82;;;32.30;48.30;;;;;;4883622;28;87991;-72
2022/08/03 12:23:18;;;;;;;3.00;0.85;;;31.80;52.30;;;;;;4882814;28;87098;-74
2022/08/03 12:25:45;;;;;;;3.17;1.30;;;31.80;50.50;;;;;;4883754;28;87005;-73
2022/08/03 12:28:19;;;;;;;1.73;0.85;;;31.90;49.20;;;;;;4883503;28;88592;-71
2022/08/03 12:30:47;;;;;;;1.67;0.90;;;31.90;49.30;;;;;;4883795;28;88788;-72
2022/08/03 12:33:19;;;;;;;2.63;0.75;;;31.70;47.60;;;;;;4882822;28;87035;-75
2022/08/03 12:35:47;;;;;;;1.67;0.93;;;31.60;51.40;;;;;;4883429;28;86971;-71
2022/08/03 12:38:19;;;;;;;3.92;0.80;;;31.60;50.60;;;;;;4883029;28;87469;-73
2022/08/03 12:40:53;;;;;;;2.08;1.40;;;31.70;50.10;;;;;;4882872;28;87080;-71
2022/08/03 12:43:19;;;;;;;2.58;1.27;;;31.50;53.10;;;;;;4883690;28;87008;-72
2022/08/03 12:45:45;;;;;;;2.67;1.35;;;31.40;52.80;;;;;;4881946;28;86779;-73
2022/08/03 12:48:10;;;;;;;1.98;1.10;;;31.50;52.60;;;;;;4880161;28;87833;-72
2022/08/03 12:50:38;;;;;;;2.30;1.23;;;31.70;50.50;;;;;;4882706;28;87738;-71
2022/08/03 12:53:06;;;;;;;2.75;1.05;;;31.80;50.80;;;;;;4882962;28;87862;-75
2022/08/03 12:55:32;;;;;;;1.90;1.15;;;31.70;53.30;;;;;;4883377;28;87339;-74
2022/08/03 12:58:03;;;;;;;1.50;1.30;;;31.70;52.00;;;;;;4882648;28;87090;-74
2022/08/03 13:00:29;;;;;;;2.58;1.08;;;31.70;52.70;;;;;;4882787;28;86955;-71
2022/08/03 13:03:06;;;;;;;3.10;1.13;;;31.60;53.70;;;;;;4882683;28;86873;-72
2022/08/03 13:05:45;;;;;;;1.92;0.80;;;31.50;54.20;;;;;;4883470;28;87708;-71
2022/08/03 13:08:21;;;;;;;2.90;1.13;;;31.60;52.90;;;;;;4882814;28;87031;-73
2022/08/03 13:10:47;;;;;;;1.85;0.70;;;31.70;53.60;;;;;;4864835;29;87382;-74
2022/08/03 13:13:13;;;;;;;1.70;1.02;;;31.60;52.70;;;;;;4865336;28;86811;-72
2022/08/03 13:15:39;;;;;;;2.47;0.85;;;31.50;53.90;;;;;;4883081;28;86965;-71
2022/08/03 13:18:05;;;;;;;2.42;1.67;;;31.50;50.70;;;;;;4882546;28;88153;-74
2022/08/03 13:20:31;;;;;;;1.15;0.82;;;31.50;48.70;;;;;;4882772;28;88727;-74
2022/08/03 13:22:57;;;;;;;1.75;1.15;;;31.30;49.80;;;;;;4882820;28;87055;-71
2022/08/03 13:25:23;;;;;;;1.38;0.73;;;31.50;48.30;;;;;;4882545;28;87011;-74
2022/08/03 13:27:49;;;;;;;1.13;0.70;;;31.60;50.30;;;;;;4882117;28;87253;-73
2022/08/03 13:30:15;;;;;;;1.60;1.10;;;31.60;44.80;;;;;;4882220;28;87442;-73
2022/08/03 13:32:41;;;;;;;1.17;0.73;;;31.60;46.40;;;;;;4882923;28;86955;-75
2022/08/03 13:35:08;;;;;;;1.55;1.05;;;31.70;44.40;;;;;;4882984;28;86825;-72
2022/08/03 13:37:34;;;;;;;1.67;0.88;;;31.60;47.00;;;;;;4881134;28;87683;-75
2022/08/03 13:40:01;;;;;;;3.13;0.98;;;31.60;47.00;;;;;;4882240;28;88193;-73
2022/08/03 13:42:29;;;;;;;1.63;0.82;;;31.50;46.10;;;;;;4881497;28;87939;-72
2022/08/03 13:44:54;;;;;;;2.13;1.05;;;31.40;45.70;;;;;;4882454;28;86957;-73
2022/08/03 13:47:20;;;;;;;2.45;0.60;;;31.50;44.40;;;;;;4882273;28;87754;-71
2022/08/03 13:49:46;;;;;;;1.38;0.80;;;31.60;43.80;;;;;;4881519;28;87274;-72
2022/08/03 13:52:11;;;;;;;1.83;0.70;;;31.40;44.20;;;;;;4882363;28;86943;-72
2022/08/03 13:54:37;;;;;;;2.33;1.02;;;31.50;45.20;;;;;;4882601;28;87425;-71
2022/08/03 13:57:03;;;;;;;1.90;1.20;;;31.40;46.80;;;;;;4881928;28;87282;-73
2022/08/03 13:59:29;;;;;;;1.40;0.85;;;31.60;45.70;;;;;;4881865;28;87948;-73
2022/08/03 14:01:55;;;;;;;1.23;0.68;;;31.60;46.50;;;;;;4882141;28;87481;-71
2022/08/03 14:04:21;;;;;;;1.63;1.10;;;31.70;46.80;;;;;;4882221;28;87132;-73
2022/08/03 14:06:48;;;;;;;1.38;0.90;;;31.80;47.20;;;;;;4881981;28;88986;-72
2022/08/03 14:09:14;;;;;;;4.38;1.35;;;31.90;47.80;;;;;;4882336;28;87181;-71
2022/08/03 14:11:41;;;;;;;3.40;1.15;;;31.70;48.20;;;;;;4899242;28;87010;-71
2022/08/03 14:14:07;;;;;;;1.65;0.80;;;31.60;48.60;;;;;;4897953;28;87002;-72
2022/08/03 14:16:34;;;;;;;1.58;0.95;;;31.70;47.40;;;;;;4881970;28;87215;-73
2022/08/03 14:19:00;;;;;;;2.65;0.85;;;31.60;47.90;;;;;;4882088;28;87411;-71
2022/08/03 14:21:25;;;;;;;2.00;1.58;;;31.70;47.40;;;;;;4881455;28;87111;-74
2022/08/03 14:23:51;;;;;;;3.92;0.65;;;31.70;45.40;;;;;;4876272;28;86182;-73
2022/08/03 14:26:19;;;;;;;1.35;0.88;;;31.70;45.50;;;;;;4881374;28;87601;-74
2022/08/03 14:28:45;;;;;;;2.20;1.25;;;31.60;45.60;;;;;;4879548;28;88070;-75
2022/08/03 14:31:11;;;;;;;1.83;1.00;;;31.50;46.90;;;;;;4880396;28;88661;-72
2022/08/03 14:33:37;;;;;;;2.15;1.08;;;31.50;45.40;;;;;;4879229;28;87232;-73
2022/08/03 14:36:03;;;;;;;3.17;0.93;;;31.60;45.40;;;;;;4879277;28;87274;-74
2022/08/03 14:38:29;;;;;;;3.53;1.33;;;31.60;45.50;;;;;;4880538;28;87027;-74
2022/08/03 14:40:55;;;;;;;2.50;0.80;;;31.50;46.50;;;;;;4880732;28;87007;-72
2022/08/03 14:43:20;;;;;;;3.88;1.13;;;31.40;46.90;;;;;;4880905;28;87020;-72
2022/08/03 14:45:52;;;;;;;4.10;1.15;;;31.40;46.60;;;;;;4880172;28;86934;-74
2022/08/03 14:48:21;;;;;;;3.28;1.05;;;31.50;46.50;;;;;;4881558;28;87808;-73
2022/08/03 14:50:47;;;;;;;1.52;1.10;;;31.40;45.60;;;;;;4881526;28;86703;-73
2022/08/03 14:53:13;;;;;;;1.70;1.02;;;31.30;44.20;;;;;;4876706;28;87116;-71
2022/08/03 14:55:39;;;;;;;3.38;1.45;;;31.30;46.30;;;;;;4880052;28;88530;-72
2022/08/03 14:58:05;;;;;;;2.08;1.00;;;31.50;46.50;;;;;;4880375;28;88160;-75
2022/08/03 15:00:35;;;;;;;5.80;1.33;;;31.60;45.60;;;;;;4880225;28;87143;-73
2022/08/03 15:03:02;;;;;;;2.28;0.80;;;31.50;44.20;;;;;;4879908;28;86998;-75
2022/08/03 15:05:28;;;;;;;1.42;0.98;;;31.30;44.30;;;;;;4880263;28;87422;-73
2022/08/03 15:07:53;;;;;;;2.00;1.17;;;31.20;46.00;;;;;;4879058;28;86905;-72
2022/08/03 15:10:19;;;;;;;1.55;0.80;;;31.30;45.00;;;;;;4886711;28;87051;-73
2022/08/03 15:12:45;;;;;;;2.97;1.23;;;31.40;44.60;;;;;;4887891;28;86612;-73
2022/08/03 15:15:11;;;;;;;2.92;1.23;;;31.40;45.20;;;;;;4877198;28;87548;-73
2022/08/03 15:17:36;;;;;;;2.35;0.95;;;31.50;45.30;;;;;;4877608;28;87949;-74
2022/08/03 15:20:03;;;;;;;1.67;0.77;;;31.40;45.60;;;;;;4880379;28;88156;-72
2022/08/03 15:22:29;;;;;;;5.35;0.93;;;31.30;44.10;;;;;;4880875;28;86915;-71
2022/08/03 15:24:55;;;;;;;1.67;1.48;;;31.30;46.10;;;;;;4880780;28;87252;-72
2022/08/03 15:27:22;;;;;;;2.78;1.48;;;31.30;46.10;;;;;;4880556;28;87042;-73
2022/08/03 15:29:47;;;;;;;1.50;0.80;;;31.30;45.30;;;;;;4878397;28;87851;-71
2022/08/03 15:32:13;;;;;;;3.30;0.77;;;31.30;45.80;;;;;;4881655;28;86960;-74
2022/08/03 15:34:39;;;;;;;2.80;0.85;;;31.30;44.50;;;;;;4880954;28;88190;-71
2022/08/03 15:37:05;;;;;;;1.75;1.02;;;31.20;44.80;;;;;;4881139;28;86928;-71
2022/08/03 15:39:31;;;;;;;3.65;1.00;;;31.30;44.30;;;;;;4881053;28;87010;-71
2022/08/03 15:41:57;;;;;;;2.00;0.95;;;31.20;44.40;;;;;;4884309;28;86980;-71
2022/08/03 15:44:23;;;;;;;1.55;0.80;;;31.00;44.20;;;;;;4883116;28;87881;-73
2022/08/03 15:46:51;;;;;;;1.35;1.00;;;31.10;43.80;;;;;;4881463;28;88127;-72
2022/08/03 15:49:19;;;;;;;2.38;0.70;;;31.20;44.20;;;;;;4876418;28;87099;-71